Time;durP1;ratioP1;P1;durP2;ratioP2;P2;SDS_P1;SDS_P2;PMS_P1;PMS_P2;Temp;Humidity;BMP_temperature;BMP_pressure;BME280_temperature;BME280_humidity;BME280_pressure;Samples;Min_cycle;Max_cycle;Signal;HPM_P1;HPM_P2
2021/10/02 00:31:03;;;;;;;;;;;;;;;21.15;46.29;95756.16;1052661;28;1094;-59
2021/10/02 00:35:47;;;;;;;;;;;;;;;21.14;46.52;95746.69;1048191;28;1577;-59
2021/10/02 00:37:20;;;;;;;;;;;;;;;21.14;46.32;95745.91;1050187;28;1185;-58
2021/10/02 00:37:24;;;;;;;;;;;;;;;21.13;46.56;95746.94;1051506;28;1232;-59
2021/10/02 00:38:13;;;;;;;;;;;;;;;21.13;46.67;95746.94;1052710;28;1047;-59
2021/10/02 00:41:37;;;;;;;;;;;;;;;21.15;46.65;95742.19;1050212;28;1099;-57
2021/10/02 00:44:38;;;;;;;;;;;;;;;21.13;46.60;95739.03;1048321;28;949;-56
2021/10/02 00:45:08;;;;;;;;;;;;;;;21.13;46.57;95742.47;1051039;28;1592;-55
2021/10/02 00:45:39;;;;;;;;;;;;;;;21.14;46.77;95740.63;1049063;28;1198;-55
2021/10/02 00:46:09;;;;;;;;;;;;;;;21.14;46.66;95740.63;1052524;28;1175;-58
2021/10/02 00:46:40;;;;;;;;;;;;;;;21.13;46.63;95746.94;1050948;28;1095;-52
2021/10/02 00:47:11;;;;;;;;;;;;;;;21.12;46.54;95740.91;1051394;28;1069;-57
2021/10/02 00:47:41;;;;;;;;;;;;;;;21.13;46.56;95746.94;1050651;28;2157;-56
2021/10/02 00:48:12;;;;;;;;;;;;;;;21.11;46.61;95741.16;1051620;28;1558;-58
2021/10/02 00:48:42;;;;;;;;;;;;;;;21.10;46.44;95743.03;1050370;28;1827;-55
2021/10/02 00:49:13;;;;;;;;;;;;;;;21.12;46.59;95745.38;1049508;28;1193;-55
2021/10/02 00:49:43;;;;;;;;;;;;;;;21.12;46.35;95740.13;1045182;28;1148;-58
2021/10/02 00:50:13;;;;;;;;;;;;;;;21.12;46.57;95742.75;1043887;28;1835;-59
2021/10/02 00:50:44;;;;;;;;;;;;;;;21.13;46.50;95737.19;1045845;28;1104;-57
2021/10/02 00:51:15;;;;;;;;;;;;;;;21.11;46.42;95738.53;1048896;28;1417;-59
2021/10/02 00:51:45;;;;;;;;;;;;;;;21.11;46.54;95746.44;1045726;28;1639;-59
2021/10/02 00:52:17;;;;;;;;;;;;;;;21.11;46.44;95749.06;1052223;28;1432;-59
2021/10/02 00:52:48;;;;;;;;;;;;;;;21.11;46.32;95743.81;1049032;28;1013;-59
2021/10/02 00:53:18;;;;;;;;;;;;;;;21.15;46.46;95744.81;1049200;28;1142;-59
2021/10/02 00:53:49;;;;;;;;;;;;;;;21.13;46.64;95745.09;1049711;28;1893;-59
2021/10/02 00:54:19;;;;;;;;;;;;;;;21.14;46.78;95743.25;1053102;28;1008;-60
2021/10/02 00:54:50;;;;;;;;;;;;;;;21.12;46.51;95742.75;1052704;28;1138;-62
2021/10/02 00:55:20;;;;;;;;;;;;;;;21.13;46.34;95749.59;1053232;28;1103;-59
2021/10/02 00:55:51;;;;;;;;;;;;;;;21.12;46.39;95740.91;1050573;28;1343;-57
2021/10/02 00:56:21;;;;;;;;;;;;;;;21.12;46.68;95745.38;1052091;28;1133;-58
2021/10/02 00:56:51;;;;;;;;;;;;;;;21.12;46.49;95753.28;1051050;28;1013;-59
2021/10/02 00:57:22;;;;;;;;;;;;;;;21.12;46.68;95755.94;1052414;28;1378;-59
2021/10/02 00:57:52;;;;;;;;;;;;;;;21.12;46.43;95742.75;1052973;28;1060;-58
2021/10/02 00:58:23;;;;;;;;;;;;;;;21.11;46.49;95746.44;1052775;28;1150;-59
2021/10/02 00:58:54;;;;;;;;;;;;;;;21.11;46.51;95749.06;1051984;28;1955;-59
2021/10/02 00:59:29;;;;;;;;;;;;;;;21.10;46.44;95747.50;1054016;28;1225;-57
2021/10/02 00:59:59;;;;;;;;;;;;;;;21.10;46.67;95748.31;1052020;28;1088;-59
2021/10/02 01:00:29;;;;;;;;;;;;;;;21.12;46.85;95753.28;1050824;28;1967;-57
2021/10/02 01:01:00;;;;;;;;;;;;;;;21.11;46.65;95749.06;1050963;28;1128;-59
2021/10/02 01:01:34;;;;;;;;;;;;;;;21.12;46.64;95748.03;1048533;28;1256;-58
2021/10/02 01:02:22;;;;;;;;;;;;;;;21.12;46.42;95751.47;1049049;28;1565;-57
2021/10/02 01:02:54;;;;;;;;;;;;;;;21.13;46.51;95749.59;1050512;28;1016;-59
2021/10/02 01:03:24;;;;;;;;;;;;;;;21.13;46.51;95746.94;1051660;28;1265;-58
2021/10/02 01:04:00;;;;;;;;;;;;;;;21.14;46.66;95743.25;1050556;28;1943;-60
2021/10/02 01:04:31;;;;;;;;;;;;;;;21.13;46.62;95746.94;1051103;28;1583;-57
2021/10/02 01:05:04;;;;;;;;;;;;;;;21.13;46.59;95741.69;1051980;28;1402;-58
2021/10/02 01:05:46;;;;;;;;;;;;;;;21.12;46.59;95750.66;1049057;28;1057;-57
2021/10/02 01:06:17;;;;;;;;;;;;;;;21.13;46.50;95746.94;1048846;28;1603;-60
2021/10/02 01:06:48;;;;;;;;;;;;;;;21.12;46.64;95742.75;1051548;28;1114;-54
2021/10/02 01:07:25;;;;;;;;;;;;;;;21.12;46.77;95750.66;1049680;28;1383;-58
2021/10/02 01:08:16;;;;;;;;;;;;;;;21.11;46.65;95746.44;1047462;28;1401;-59
2021/10/02 01:09:06;;;;;;;;;;;;;;;21.10;46.60;95748.31;1040902;28;2031;-58
2021/10/02 01:10:06;;;;;;;;;;;;;;;21.12;46.39;95748.03;1050907;28;1147;-58
2021/10/02 01:10:52;;;;;;;;;;;;;;;21.10;46.66;95747.50;1050385;28;1220;-58
2021/10/02 01:11:34;;;;;;;;;;;;;;;21.10;46.62;95747.50;1049219;28;1118;-56
2021/10/02 01:12:19;;;;;;;;;;;;;;;21.10;46.43;95740.41;1051512;28;1282;-57
2021/10/02 01:12:50;;;;;;;;;;;;;;;21.12;46.49;95745.38;1050486;28;1245;-59
2021/10/02 01:13:24;;;;;;;;;;;;;;;21.11;46.58;95738.53;1053596;28;1205;-59
2021/10/02 01:14:14;;;;;;;;;;;;;;;21.10;46.66;95743.03;1052643;28;1189;-58
2021/10/02 01:15:05;;;;;;;;;;;;;;;21.11;46.60;95735.91;1052240;28;1601;-59
2021/10/02 01:16:17;;;;;;;;;;;;;;;21.10;46.57;95742.25;1051049;28;1367;-59
2021/10/02 01:16:49;;;;;;;;;;;;;;;21.12;46.59;95740.13;1048549;28;954;-58
2021/10/02 01:17:23;;;;;;;;;;;;;;;21.11;46.67;95746.44;1045883;28;1296;-58
2021/10/02 01:18:01;;;;;;;;;;;;;;;21.11;46.64;95733.25;1040174;28;1034;-58
2021/10/02 01:18:54;;;;;;;;;;;;;;;21.10;46.47;95736.97;1040958;28;2010;-59
2021/10/02 01:19:50;;;;;;;;;;;;;;;21.10;46.51;95734.34;1039546;28;1195;-59
2021/10/02 01:20:44;;;;;;;;;;;;;;;21.14;46.52;95732.72;1047596;28;1921;-59
2021/10/02 01:21:21;;;;;;;;;;;;;;;21.12;46.56;95734.84;1049511;28;1028;-59
2021/10/02 01:21:52;;;;;;;;;;;;;;;21.12;46.43;95737.47;1048931;28;1648;-59
2021/10/02 01:22:41;;;;;;;;;;;;;;;21.10;46.32;95734.34;1045618;28;1429;-58
2021/10/02 01:23:32;;;;;;;;;;;;;;;21.08;46.60;95730.13;1048285;28;1212;-59
2021/10/02 01:24:41;;;;;;;;;;;;;;;21.10;46.59;95731.69;1051337;28;1431;-59
2021/10/02 01:25:27;;;;;;;;;;;;;;;21.10;46.63;95742.25;1050380;28;1453;-59
2021/10/02 01:26:16;;;;;;;;;;;;;;;21.11;46.65;95731.41;1050297;28;2121;-59
2021/10/02 01:27:10;;;;;;;;;;;;;;;21.11;46.61;95738.53;1047869;28;1224;-59
2021/10/02 01:28:07;;;;;;;;;;;;;;;21.12;46.44;95730.38;1047744;28;1662;-59
2021/10/02 01:28:38;;;;;;;;;;;;;;;21.12;46.51;95734.84;1049222;28;1205;-62
2021/10/02 01:29:28;;;;;;;;;;;;;;;21.10;46.76;95732.50;1048658;28;1286;-59
2021/10/02 01:32:08;;;;;;;;;;;;;;;21.11;46.38;95730.63;1044436;28;1088;-58
2021/10/02 01:32:45;;;;;;;;;;;;;;;21.10;46.34;95731.69;1041579;28;1147;-59
2021/10/02 01:33:25;;;;;;;;;;;;;;;21.12;46.48;95724.31;1044833;28;1210;-59
2021/10/02 01:34:06;;;;;;;;;;;;;;;21.12;46.50;95729.56;1041416;28;2158;-59
2021/10/02 01:35:06;;;;;;;;;;;;;;;21.10;46.58;95726.44;1048682;28;799;-59
2021/10/02 01:35:40;;;;;;;;;;;;;;;21.08;46.65;95724.84;1048991;28;1512;-59
2021/10/02 01:36:32;;;;;;;;;;;;;;;21.10;46.67;95732.50;1048505;28;1799;-59
2021/10/02 01:47:34;;;;;;;;;;;;;;;21.08;46.58;95728.56;1044396;28;1288;-58
2021/10/02 01:48:04;;;;;;;;;;;;;;;21.08;46.62;95722.22;1049978;28;2137;-58
2021/10/02 01:48:36;;;;;;;;;;;;;;;21.11;46.57;95725.34;1045628;28;1734;-59
2021/10/02 01:49:06;;;;;;;;;;;;;;;21.10;46.32;95723.78;1049887;28;1048;-57
2021/10/02 01:49:40;;;;;;;;;;;;;;;21.08;46.44;95716.94;1048679;28;1038;-57
2021/10/02 01:50:11;;;;;;;;;;;;;;;21.08;46.47;95718.81;1046694;28;1579;-57
2021/10/02 01:50:41;;;;;;;;;;;;;;;21.08;46.46;95723.28;1049506;28;1048;-58
2021/10/02 01:51:12;;;;;;;;;;;;;;;21.10;46.59;95721.94;1053277;28;1268;-57
2021/10/02 01:51:42;;;;;;;;;;;;;;;21.11;46.60;95722.72;1045397;28;1169;-57
2021/10/02 01:52:13;;;;;;;;;;;;;;;21.11;46.34;95720.88;1046312;28;1981;-58
2021/10/02 01:52:43;;;;;;;;;;;;;;;21.10;46.31;95729.06;1046337;28;1282;-57
2021/10/02 01:53:13;;;;;;;;;;;;;;;21.08;46.61;95718.00;1046242;28;1480;-56
2021/10/02 01:53:44;;;;;;;;;;;;;;;21.07;46.66;95711.94;1048481;28;1061;-58
2021/10/02 01:54:14;;;;;;;;;;;;;;;21.08;46.64;95718.00;1044443;28;1270;-58
2021/10/02 01:54:45;;;;;;;;;;;;;;;21.07;46.41;95711.94;1039217;28;2352;-59
2021/10/02 01:55:15;;;;;;;;;;;;;;;21.10;46.45;95718.53;1040841;28;1151;-56
2021/10/02 01:55:45;;;;;;;;;;;;;;;21.08;46.59;95719.56;1044956;28;1095;-59
2021/10/02 01:56:17;;;;;;;;;;;;;;;21.08;46.44;95718.00;1043861;28;1221;-60
2021/10/02 01:56:47;;;;;;;;;;;;;;;21.08;46.64;95718.00;1041857;28;1333;-57
2021/10/02 01:57:18;;;;;;;;;;;;;;;21.07;46.62;95722.50;1044864;28;1465;-58
2021/10/02 01:57:52;;;;;;;;;;;;;;;21.06;46.61;95721.69;1044826;28;1123;-59
2021/10/02 01:58:22;;;;;;;;;;;;;;;21.07;46.59;95717.22;1045201;28;1084;-59
2021/10/02 01:58:54;;;;;;;;;;;;;;;21.08;46.56;95718.00;1048752;28;1095;-59
2021/10/02 01:59:24;;;;;;;;;;;;;;;21.08;46.69;95724.84;1045579;28;1546;-61
2021/10/02 01:59:55;;;;;;;;;;;;;;;21.08;46.48;95718.00;1046613;28;1961;-58
2021/10/02 02:00:27;;;;;;;;;;;;;;;21.07;46.49;95717.22;1050235;28;1212;-55
2021/10/02 02:00:57;;;;;;;;;;;;;;;21.08;46.37;95718.00;1051176;28;1902;-59
2021/10/02 02:01:28;;;;;;;;;;;;;;;21.10;46.68;95718.53;1049554;28;1162;-58
2021/10/02 02:01:58;;;;;;;;;;;;;;;21.09;46.50;95720.38;1048049;28;1663;-59
2021/10/02 02:02:28;;;;;;;;;;;;;;;21.14;46.42;95716.91;1048543;28;1177;-58
2021/10/02 02:03:00;;;;;;;;;;;;;;;21.12;46.59;95719.81;1044305;28;1969;-57
2021/10/02 02:03:36;;;;;;;;;;;;;;;21.11;46.39;95723.50;1044931;28;1565;-58
2021/10/02 02:04:07;;;;;;;;;;;;;;;21.09;46.44;95717.72;1044461;28;1197;-59
2021/10/02 02:04:39;;;;;;;;;;;;;;;21.08;46.36;95724.84;1042184;28;2066;-59
2021/10/02 02:05:10;;;;;;;;;;;;;;;21.09;46.40;95723.00;1045888;28;1105;-58
2021/10/02 02:05:40;;;;;;;;;;;;;;;21.08;46.65;95722.22;1041028;28;1447;-59
2021/10/02 02:06:10;;;;;;;;;;;;;;;21.08;46.56;95722.22;1040071;28;1752;-58
2021/10/02 02:06:41;;;;;;;;;;;;;;;21.07;46.50;95714.59;1036917;28;1349;-58
2021/10/02 02:07:13;;;;;;;;;;;;;;;21.06;46.64;95713.78;1040920;28;1300;-57
2021/10/02 02:07:44;;;;;;;;;;;;;;;21.05;46.69;95712.25;1047965;28;2036;-56
2021/10/02 02:08:15;;;;;;;;;;;;;;;21.07;46.67;95714.59;1053156;28;1173;-58
2021/10/02 02:08:45;;;;;;;;;;;;;;;21.06;46.55;95713.78;1053046;28;1075;-56
2021/10/02 02:09:16;;;;;;;;;;;;;;;21.10;46.28;95715.88;1048071;28;1138;-57
2021/10/02 02:09:46;;;;;;;;;;;;;;;21.08;46.55;95714.31;1041305;28;2356;-53
2021/10/02 02:10:17;;;;;;;;;;;;;;;21.08;46.44;95712.75;1039022;28;1264;-57
2021/10/02 02:10:47;;;;;;;;;;;;;;;21.08;46.52;95714.31;1043007;28;1550;-58
2021/10/02 02:11:18;;;;;;;;;;;;;;;21.08;46.51;95718.00;1044816;28;1119;-57
2021/10/02 02:11:48;;;;;;;;;;;;;;;21.08;46.41;95712.75;1049111;28;1048;-56
2021/10/02 02:12:18;;;;;;;;;;;;;;;21.07;46.42;95714.59;1048732;28;1118;-54
2021/10/02 02:12:50;;;;;;;;;;;;;;;21.08;46.64;95715.38;1041736;28;1253;-58
2021/10/02 02:13:20;;;;;;;;;;;;;;;21.07;46.37;95711.94;1039336;28;1273;-59
2021/10/02 02:13:51;;;;;;;;;;;;;;;21.06;46.52;95711.16;1040001;28;1433;-56
2021/10/02 02:14:21;;;;;;;;;;;;;;;21.08;46.41;95709.03;1039494;28;1175;-56
2021/10/02 02:14:51;;;;;;;;;;;;;;;21.09;46.36;95709.81;1042570;28;2039;-58
2021/10/02 02:15:22;;;;;;;;;;;;;;;21.10;46.58;95713.25;1047331;28;1492;-58
2021/10/02 02:15:52;;;;;;;;;;;;;;;21.10;46.42;95710.63;1048157;28;1109;-56
2021/10/02 02:16:23;;;;;;;;;;;;;;;21.10;46.57;95715.88;1049204;28;2003;-56
2021/10/02 02:16:53;;;;;;;;;;;;;;;21.08;46.56;95706.41;1053146;28;1028;-59
2021/10/02 02:17:24;;;;;;;;;;;;;;;21.09;46.42;95715.09;1051633;28;1327;-56
2021/10/02 02:18:01;;;;;;;;;;;;;;;21.08;46.42;95707.47;1052400;28;1053;-58
2021/10/02 02:18:31;;;;;;;;;;;;;;;21.06;46.34;95711.16;1049028;28;816;-59
2021/10/02 02:19:01;;;;;;;;;;;;;;;21.08;46.38;95707.47;1050310;28;1028;-59
2021/10/02 02:19:32;;;;;;;;;;;;;;;21.08;46.35;95710.09;1051585;28;1149;-59
2021/10/02 02:20:03;;;;;;;;;;;;;;;21.07;46.44;95704.03;1050072;28;1144;-59
2021/10/02 02:20:37;;;;;;;;;;;;;;;21.06;46.44;95711.16;1047786;28;1969;-59
2021/10/02 02:21:09;;;;;;;;;;;;;;;21.06;46.48;95703.25;1044607;28;1084;-59
2021/10/02 02:21:39;;;;;;;;;;;;;;;21.07;46.61;95714.59;1038703;28;2249;-58
2021/10/02 02:22:09;;;;;;;;;;;;;;;21.06;46.34;95708.53;1044514;28;1077;-59
2021/10/02 02:22:40;;;;;;;;;;;;;;;21.07;46.32;95711.94;1044872;28;828;-57
2021/10/02 02:23:10;;;;;;;;;;;;;;;21.07;46.52;95709.31;1048678;28;1170;-57
2021/10/02 02:23:41;;;;;;;;;;;;;;;21.06;46.38;95705.88;1048773;28;1044;-59
2021/10/02 02:24:11;;;;;;;;;;;;;;;21.07;46.52;95711.94;1044197;28;1810;-57
2021/10/02 02:24:42;;;;;;;;;;;;;;;21.06;46.33;95711.16;1042726;28;1585;-56
2021/10/02 02:25:12;;;;;;;;;;;;;;;21.05;46.42;95706.16;1040872;28;1531;-58
2021/10/02 02:25:43;;;;;;;;;;;;;;;21.06;46.30;95711.16;1042111;28;1146;-58
2021/10/02 02:26:13;;;;;;;;;;;;;;;21.06;46.63;95705.88;1043922;28;1119;-58
2021/10/02 02:26:43;;;;;;;;;;;;;;;21.04;46.61;95708.00;1041469;28;2335;-59
2021/10/02 02:27:14;;;;;;;;;;;;;;;21.05;46.61;95708.81;1048480;28;1288;-59
2021/10/02 02:27:44;;;;;;;;;;;;;;;21.05;46.47;95708.81;1048646;28;1028;-57
2021/10/02 02:28:14;;;;;;;;;;;;;;;21.05;46.32;95711.44;1048646;28;1062;-58
2021/10/02 02:28:45;;;;;;;;;;;;;;;21.03;46.72;95706.47;1043819;28;1613;-57
2021/10/02 02:29:15;;;;;;;;;;;;;;;21.04;46.40;95707.25;1046950;28;1091;-59
2021/10/02 02:29:45;;;;;;;;;;;;;;;21.05;46.31;95708.81;1040513;28;1079;-58
2021/10/02 02:30:16;;;;;;;;;;;;;;;21.04;46.72;95713.28;1040923;28;1120;-55
2021/10/02 02:30:46;;;;;;;;;;;;;;;21.04;46.58;95708.00;1044779;28;1340;-59
2021/10/02 02:31:16;;;;;;;;;;;;;;;21.05;46.68;95714.88;1044521;28;2029;-59
2021/10/02 02:31:47;;;;;;;;;;;;;;;21.05;46.64;95712.25;1045416;28;2385;-58
2021/10/02 02:32:17;;;;;;;;;;;;;;;21.08;46.45;95710.91;1046983;28;1292;-57
2021/10/02 02:32:49;;;;;;;;;;;;;;;21.06;46.50;95711.16;1042877;28;1585;-58
2021/10/02 02:33:20;;;;;;;;;;;;;;;21.06;46.40;95705.88;1043669;28;1343;-58
2021/10/02 02:33:50;;;;;;;;;;;;;;;21.05;46.62;95709.59;1041855;28;1218;-57
2021/10/02 02:34:21;;;;;;;;;;;;;;;21.07;46.61;95709.31;1044758;28;1115;-58
2021/10/02 02:34:51;;;;;;;;;;;;;;;21.08;46.44;95710.09;1051338;28;1232;-58
2021/10/02 02:35:22;;;;;;;;;;;;;;;21.08;46.52;95712.75;1050538;28;1619;-58
2021/10/02 02:35:52;;;;;;;;;;;;;;;21.06;46.57;95711.16;1049431;28;1471;-59
2021/10/02 02:36:22;;;;;;;;;;;;;;;21.06;46.46;95716.44;1050548;28;2039;-58
2021/10/02 02:36:53;;;;;;;;;;;;;;;21.05;46.50;95708.81;1047382;28;1291;-58
2021/10/02 02:37:23;;;;;;;;;;;;;;;21.06;46.36;95710.41;1047976;28;1437;-59
2021/10/02 02:37:54;;;;;;;;;;;;;;;21.06;46.69;95711.16;1048773;28;1095;-59
2021/10/02 02:38:27;;;;;;;;;;;;;;;21.05;46.57;95712.25;1050466;28;1165;-59
2021/10/02 02:38:58;;;;;;;;;;;;;;;21.06;46.41;95719.06;1052743;28;1397;-59
2021/10/02 02:39:28;;;;;;;;;;;;;;;21.07;46.46;95714.59;1053299;28;1202;-59
2021/10/02 02:39:59;;;;;;;;;;;;;;;21.09;46.36;95715.09;1052705;28;1134;-59
2021/10/02 02:40:29;;;;;;;;;;;;;;;21.08;46.53;95707.47;1053373;28;1130;-60
2021/10/02 02:41:00;;;;;;;;;;;;;;;21.08;46.38;95719.56;1053311;28;1976;-60
2021/10/02 02:41:30;;;;;;;;;;;;;;;21.08;46.31;95718.00;1051310;28;1977;-59
2021/10/02 02:42:00;;;;;;;;;;;;;;;21.08;46.66;95715.38;1050738;28;1178;-59
2021/10/02 02:42:31;;;;;;;;;;;;;;;21.05;46.43;95709.59;1057096;28;1302;-59
2021/10/02 02:43:01;;;;;;;;;;;;;;;21.06;46.55;95713.78;1054293;28;1111;-58
2021/10/02 02:43:35;;;;;;;;;;;;;;;21.06;46.69;95718.31;1051078;28;1376;-58
2021/10/02 02:44:05;;;;;;;;;;;;;;;21.05;46.64;95703.53;1046599;28;1155;-59
2021/10/02 02:44:36;;;;;;;;;;;;;;;21.05;46.41;95717.50;1044567;28;858;-57
2021/10/02 02:45:06;;;;;;;;;;;;;;;21.06;46.59;95716.44;1044473;28;1190;-57
2021/10/02 02:45:37;;;;;;;;;;;;;;;21.06;46.44;95716.44;1045081;28;926;-58
2021/10/02 02:46:16;;;;;;;;;;;;;;;21.05;46.57;95714.06;1044696;28;1115;-57
2021/10/02 02:46:50;;;;;;;;;;;;;;;21.04;46.35;95715.91;1043374;28;2419;-58
2021/10/02 02:47:21;;;;;;;;;;;;;;;21.05;46.62;95712.25;1047440;28;1295;-58
2021/10/02 02:47:53;;;;;;;;;;;;;;;21.06;46.35;95711.16;1045307;28;1016;-59
2021/10/02 02:48:32;;;;;;;;;;;;;;;21.07;46.45;95711.94;1049809;28;1197;-57
2021/10/02 02:49:02;;;;;;;;;;;;;;;21.06;46.53;95715.66;1046137;28;1065;-59
2021/10/02 02:49:38;;;;;;;;;;;;;;;21.05;46.54;95717.50;1050408;28;851;-59
2021/10/02 02:50:15;;;;;;;;;;;;;;;21.04;46.35;95718.56;1051784;28;2091;-57
2021/10/02 02:50:45;;;;;;;;;;;;;;;21.04;46.46;95718.56;1050607;28;1571;-57
2021/10/02 02:51:25;;;;;;;;;;;;;;;21.05;46.46;95714.06;1044374;28;1858;-59
2021/10/02 02:51:59;;;;;;;;;;;;;;;21.06;46.26;95715.66;1042506;28;1857;-58
2021/10/02 02:52:48;;;;;;;;;;;;;;;21.06;46.53;95720.94;1045294;28;2049;-59
2021/10/02 02:53:22;;;;;;;;;;;;;;;21.06;46.57;95718.31;1051492;28;1530;-58
2021/10/02 02:54:00;;;;;;;;;;;;;;;21.06;46.53;95718.31;1051437;28;1075;-59
2021/10/02 02:54:38;;;;;;;;;;;;;;;21.08;46.62;95718.00;1046368;28;1322;-57
2021/10/02 02:55:09;;;;;;;;;;;;;;;21.09;46.59;95715.09;1046825;28;1040;-57
2021/10/02 02:55:41;;;;;;;;;;;;;;;21.06;46.34;95713.03;1048842;28;1169;-57
2021/10/02 02:56:29;;;;;;;;;;;;;;;21.06;46.45;95715.66;1048917;28;1149;-58
2021/10/02 02:57:01;;;;;;;;;;;;;;;21.06;46.24;95716.44;1049246;28;1152;-58
2021/10/02 02:57:37;;;;;;;;;;;;;;;21.05;46.32;95714.06;1048805;28;1201;-59
2021/10/02 02:58:08;;;;;;;;;;;;;;;21.04;46.57;95713.28;1049681;28;1096;-59
2021/10/02 02:58:39;;;;;;;;;;;;;;;21.06;46.48;95705.88;1049200;28;839;-60
2021/10/02 02:59:22;;;;;;;;;;;;;;;21.06;46.52;95713.78;1052639;28;1092;-59
2021/10/02 03:00:00;;;;;;;;;;;;;;;21.07;46.68;95711.94;1049242;28;1106;-58
2021/10/02 03:00:31;;;;;;;;;;;;;;;21.06;46.30;95713.78;1049905;28;1439;-58
2021/10/02 03:01:01;;;;;;;;;;;;;;;21.06;46.54;95718.31;1047642;28;1910;-59
2021/10/02 03:01:32;;;;;;;;;;;;;;;21.05;46.48;95709.59;1041979;28;2142;-59
2021/10/02 03:02:02;;;;;;;;;;;;;;;21.05;46.56;95712.25;1036312;28;1344;-58
2021/10/02 03:02:34;;;;;;;;;;;;;;;21.06;46.39;95703.25;1036003;28;856;-58
2021/10/02 03:03:09;;;;;;;;;;;;;;;21.08;46.32;95707.47;1036687;28;1158;-56
2021/10/02 03:03:39;;;;;;;;;;;;;;;21.06;46.28;95710.41;1038465;28;732;-59
2021/10/02 03:04:10;;;;;;;;;;;;;;;21.08;46.48;95704.84;1044458;28;1239;-59
2021/10/02 03:04:41;;;;;;;;;;;;;;;21.06;46.49;95708.53;1040775;28;1127;-59
2021/10/02 03:05:11;;;;;;;;;;;;;;;21.06;46.54;95713.03;1040306;28;1248;-59
2021/10/02 03:05:42;;;;;;;;;;;;;;;21.05;46.34;95709.59;1044751;28;1073;-59
2021/10/02 03:06:12;;;;;;;;;;;;;;;21.04;46.40;95710.66;1040233;28;1866;-59
2021/10/02 03:06:43;;;;;;;;;;;;;;;21.05;46.74;95709.59;1039659;28;1987;-59
2021/10/02 03:07:15;;;;;;;;;;;;;;;21.04;46.50;95704.63;1043424;28;1418;-59
2021/10/02 03:08:06;;;;;;;;;;;;;;;21.04;46.26;95707.25;1045047;28;1209;-59
2021/10/02 03:08:47;;;;;;;;;;;;;;;21.04;46.47;95708.00;1052358;28;1192;-58
2021/10/02 03:09:17;;;;;;;;;;;;;;;21.02;46.38;95704.88;1049793;28;1102;-58
2021/10/02 03:09:48;;;;;;;;;;;;;;;21.02;46.59;95709.34;1050005;28;1040;-58
2021/10/02 03:10:18;;;;;;;;;;;;;;;21.04;46.63;95707.25;1051090;28;1142;-59
2021/10/02 03:10:49;;;;;;;;;;;;;;;21.03;46.41;95705.66;1052350;28;1032;-58
2021/10/02 03:11:19;;;;;;;;;;;;;;;21.03;46.37;95709.09;1050094;28;2089;-61
2021/10/02 03:11:50;;;;;;;;;;;;;;;21.03;46.56;95711.72;1050590;28;2428;-59
2021/10/02 03:12:33;;;;;;;;;;;;;;;21.04;46.41;95710.66;1045533;28;1414;-59
2021/10/02 03:13:07;;;;;;;;;;;;;;;21.02;46.66;95707.50;1043520;28;1420;-59
2021/10/02 03:13:38;;;;;;;;;;;;;;;21.02;46.36;95707.50;1042510;28;1241;-59
2021/10/02 03:14:09;;;;;;;;;;;;;;;21.03;46.41;95710.94;1042658;28;1097;-58
2021/10/02 03:14:43;;;;;;;;;;;;;;;21.02;46.51;95702.22;1040201;28;1590;-56
2021/10/02 03:15:14;;;;;;;;;;;;;;;21.03;46.48;95706.47;1040433;28;1124;-59
2021/10/02 03:15:46;;;;;;;;;;;;;;;21.03;46.54;95711.72;1044166;28;1453;-59
2021/10/02 03:16:16;;;;;;;;;;;;;;;21.03;46.47;95711.72;1048596;28;2361;-59
2021/10/02 03:16:46;;;;;;;;;;;;;;;21.03;46.65;95706.47;1047393;28;2223;-59
2021/10/02 03:17:17;;;;;;;;;;;;;;;21.03;46.61;95706.47;1052148;28;1350;-59
2021/10/02 03:17:47;;;;;;;;;;;;;;;21.04;46.43;95712.53;1044300;28;1081;-57
2021/10/02 03:18:18;;;;;;;;;;;;;;;21.04;46.42;95712.53;1047913;28;1103;-59
2021/10/02 03:18:49;;;;;;;;;;;;;;;21.02;46.65;95710.13;1045864;28;1091;-60
2021/10/02 03:19:20;;;;;;;;;;;;;;;21.03;46.40;95711.72;1044939;28;1257;-58
2021/10/02 03:19:50;;;;;;;;;;;;;;;21.02;46.40;95710.13;1044171;28;1037;-60
2021/10/02 03:20:21;;;;;;;;;;;;;;;21.03;46.57;95716.19;1039613;28;1116;-56
2021/10/02 03:20:53;;;;;;;;;;;;;;;21.02;46.50;95712.78;1042434;28;1992;-55
2021/10/02 03:21:23;;;;;;;;;;;;;;;21.01;46.45;95719.09;1048956;28;1103;-59
2021/10/02 03:21:54;;;;;;;;;;;;;;;21.02;46.45;95711.97;1047348;28;2345;-59
2021/10/02 03:22:25;;;;;;;;;;;;;;;21.02;46.67;95719.88;1041290;28;1371;-58
2021/10/02 03:22:56;;;;;;;;;;;;;;;21.02;46.60;95714.63;1038360;28;1069;-58
2021/10/02 03:23:29;;;;;;;;;;;;;;;21.01;46.56;95713.81;1038785;28;1447;-59
2021/10/02 03:23:59;;;;;;;;;;;;;;;21.02;46.57;95710.13;1044688;28;1712;-58
2021/10/02 03:24:30;;;;;;;;;;;;;;;21.03;46.20;95711.72;1044685;28;1512;-57
2021/10/02 03:25:00;;;;;;;;;;;;;;;21.04;46.50;95712.53;1043614;28;1446;-58
2021/10/02 03:25:31;;;;;;;;;;;;;;;21.03;46.40;95711.72;1039922;28;1194;-58
2021/10/02 03:26:01;;;;;;;;;;;;;;;21.02;46.54;95718.03;1038852;28;1201;-58
2021/10/02 03:26:32;;;;;;;;;;;;;;;21.04;46.61;95709.88;1041936;28;2002;-59
2021/10/02 03:27:03;;;;;;;;;;;;;;;21.04;46.40;95707.25;1052316;28;1557;-59
2021/10/02 03:27:33;;;;;;;;;;;;;;;21.04;46.59;95712.53;1048973;28;1298;-59
2021/10/02 03:28:04;;;;;;;;;;;;;;;21.03;46.57;95706.47;1051666;28;1095;-56
2021/10/02 03:28:34;;;;;;;;;;;;;;;21.03;46.44;95709.09;1046065;28;1039;-59
2021/10/02 03:29:05;;;;;;;;;;;;;;;21.04;46.51;95708.00;1045445;28;1144;-59
2021/10/02 03:29:35;;;;;;;;;;;;;;;21.03;46.58;95706.47;1045002;28;840;-59
2021/10/02 03:30:06;;;;;;;;;;;;;;;21.03;46.66;95711.72;1044299;28;1069;-59
2021/10/02 03:30:36;;;;;;;;;;;;;;;21.02;46.70;95709.34;1048648;28;1134;-58
2021/10/02 03:31:07;;;;;;;;;;;;;;;21.03;46.61;95705.66;1044526;28;1084;-58
2021/10/02 03:31:37;;;;;;;;;;;;;;;21.04;46.51;95704.63;1041856;28;2018;-59
2021/10/02 03:32:08;;;;;;;;;;;;;;;21.04;46.54;95708.00;1043541;28;905;-60
2021/10/02 03:32:39;;;;;;;;;;;;;;;21.05;46.49;95708.81;1040632;28;1453;-58
2021/10/02 03:33:10;;;;;;;;;;;;;;;21.05;46.25;95709.59;1048067;28;1465;-59
2021/10/02 03:33:41;;;;;;;;;;;;;;;21.05;46.36;95711.44;1050115;28;1189;-59
2021/10/02 03:34:11;;;;;;;;;;;;;;;21.05;46.27;95703.53;1051870;28;2090;-60
2021/10/02 03:34:41;;;;;;;;;;;;;;;21.05;46.28;95709.59;1048560;28;1788;-59
2021/10/02 03:35:12;;;;;;;;;;;;;;;21.04;46.56;95708.00;1044373;28;1343;-59
2021/10/02 03:35:43;;;;;;;;;;;;;;;21.05;46.70;95714.88;1044354;28;1364;-60
2021/10/02 03:36:13;;;;;;;;;;;;;;;21.05;46.34;95709.59;1044076;28;1051;-57
2021/10/02 03:36:44;;;;;;;;;;;;;;;21.03;46.50;95705.66;1043689;28;2010;-59
2021/10/02 03:37:14;;;;;;;;;;;;;;;21.03;46.48;95701.19;1051530;28;1440;-59
2021/10/02 03:37:45;;;;;;;;;;;;;;;21.03;46.56;95709.09;1052852;28;1071;-58
2021/10/02 03:38:15;;;;;;;;;;;;;;;21.02;46.34;95712.78;1052767;28;1169;-59
2021/10/02 03:38:46;;;;;;;;;;;;;;;21.03;46.55;95717.00;1046454;28;1300;-59
2021/10/02 03:39:16;;;;;;;;;;;;;;;21.03;46.36;95711.72;1048601;28;1150;-59
2021/10/02 03:39:46;;;;;;;;;;;;;;;21.03;46.56;95710.94;1048690;28;1115;-59
2021/10/02 03:40:17;;;;;;;;;;;;;;;21.05;46.50;95709.59;1050718;28;1221;-57
2021/10/02 03:40:48;;;;;;;;;;;;;;;21.02;46.56;95707.50;1049672;28;1975;-57
2021/10/02 03:41:18;;;;;;;;;;;;;;;21.02;46.34;95715.41;1052759;28;1184;-57
2021/10/02 03:42:04;;;;;;;;;;;;;;;21.02;46.44;95715.41;1049801;28;2029;-59
2021/10/02 03:42:54;;;;;;;;;;;;;;;21.02;46.34;95709.34;1048243;28;792;-57
2021/10/02 03:43:31;;;;;;;;;;;;;;;21.02;46.57;95710.13;1051490;28;1443;-59
2021/10/02 03:44:02;;;;;;;;;;;;;;;21.02;46.26;95707.50;1051774;28;1136;-58
2021/10/02 03:44:32;;;;;;;;;;;;;;;21.03;46.49;95705.66;1048022;28;800;-59
2021/10/02 03:45:03;;;;;;;;;;;;;;;21.03;46.59;95711.72;1048051;28;1045;-59
2021/10/02 03:45:36;;;;;;;;;;;;;;;21.02;46.43;95709.34;1046879;28;1579;-59
2021/10/02 03:46:06;;;;;;;;;;;;;;;21.02;46.30;95715.41;1048457;28;1088;-58
2021/10/02 03:46:37;;;;;;;;;;;;;;;21.04;46.25;95715.91;1044375;28;2399;-59
2021/10/02 03:47:08;;;;;;;;;;;;;;;21.04;46.26;95708.00;1045142;28;2041;-58
2021/10/02 03:47:38;;;;;;;;;;;;;;;21.05;46.21;95712.25;1043680;28;1334;-59
2021/10/02 03:48:10;;;;;;;;;;;;;;;21.04;46.47;95713.28;1048403;28;1065;-59
2021/10/02 03:48:41;;;;;;;;;;;;;;;21.04;46.27;95705.38;1049083;28;1212;-58
2021/10/02 03:49:11;;;;;;;;;;;;;;;21.04;46.30;95708.00;1052766;28;1051;-57
2021/10/02 03:49:42;;;;;;;;;;;;;;;21.04;46.34;95710.66;1052847;28;1048;-58